createdAt,value
2023-02-21T00:00:05.065Z,7.60
2023-02-21T00:02:57.503Z,9.10
2023-02-21T00:05:43.999Z,7.57
2023-02-21T00:08:31.976Z,9.77
2023-02-21T00:11:23.775Z,7.80
2023-02-21T00:14:10.151Z,7.50
2023-02-21T00:16:56.884Z,7.03
2023-02-21T00:19:43.767Z,8.43
2023-02-21T00:22:31.104Z,8.60
2023-02-21T00:25:19.085Z,9.17
2023-02-21T00:28:05.266Z,9.03
2023-02-21T00:30:51.645Z,8.17
2023-02-21T00:33:38.834Z,8.23
2023-02-21T00:36:27.085Z,8.67
2023-02-21T00:39:13.110Z,8.60
2023-02-21T00:41:59.045Z,7.47
2023-02-21T00:44:45.084Z,8.27
2023-02-21T00:47:32.238Z,9.57
2023-02-21T00:50:22.841Z,8.93
2023-02-21T00:53:08.633Z,8.43
2023-02-21T00:55:58.847Z,9.60
2023-02-21T00:58:44.458Z,8.97
2023-02-21T01:01:30.145Z,9.10
2023-02-21T01:04:17.033Z,10.00
2023-02-21T01:07:05.345Z,10.50
2023-02-21T01:09:52.310Z,11.70
2023-02-21T01:12:39.269Z,10.67
2023-02-21T01:15:25.139Z,10.90
2023-02-21T01:18:10.516Z,11.20
2023-02-21T01:20:56.280Z,10.60
2023-02-21T01:23:42.852Z,11.50
2023-02-21T01:26:29.961Z,12.37
2023-02-21T01:29:17.256Z,12.10
2023-02-21T01:32:03.205Z,11.63
2023-02-21T01:34:51.611Z,12.40
2023-02-21T01:37:44.079Z,12.80
2023-02-21T01:40:35.650Z,13.40
2023-02-21T01:43:32.762Z,12.43
2023-02-21T01:46:18.989Z,12.17
2023-02-21T01:49:06.886Z,12.20
2023-02-21T01:51:55.822Z,12.13
2023-02-21T01:54:43.692Z,12.50
2023-02-21T01:57:36.607Z,13.77
2023-02-21T02:00:25.731Z,14.10
2023-02-21T02:03:17.108Z,13.73
2023-02-21T02:06:09.592Z,14.33
2023-02-21T02:08:55.396Z,12.97
2023-02-21T02:12:00.804Z,13.90
2023-02-21T02:15:02.135Z,14.43
2023-02-21T02:17:42.151Z,13.20
2023-02-21T02:20:48.937Z,11.93
2023-02-21T02:23:52.612Z,12.80
2023-02-21T02:27:05.346Z,11.87
2023-02-21T02:30:04.657Z,12.47
2023-02-21T02:32:42.354Z,13.43
2023-02-21T02:35:13.813Z,13.33
2023-02-21T02:37:50.909Z,10.53
2023-02-21T02:40:29.717Z,13.83
2023-02-21T02:43:05.238Z,12.03
2023-02-21T02:45:38.676Z,11.87
2023-02-21T02:48:11.345Z,12.67
2023-02-21T02:50:41.239Z,11.43
2023-02-21T02:53:15.477Z,10.67
2023-02-21T02:55:49.034Z,12.40
2023-02-21T02:58:19.066Z,13.83
2023-02-21T03:00:52.652Z,13.70
2023-02-21T03:03:40.923Z,13.47
2023-02-21T03:06:22.552Z,11.03
2023-02-21T03:08:55.075Z,14.87
2023-02-21T03:11:26.111Z,12.23
2023-02-21T03:14:01.468Z,12.30
2023-02-21T03:16:33.573Z,12.97
2023-02-21T03:19:05.479Z,12.93
2023-02-21T03:21:41.158Z,12.73
2023-02-21T03:24:13.022Z,13.97
2023-02-21T03:26:46.535Z,12.00
2023-02-21T03:29:36.246Z,11.73
2023-02-21T03:32:12.807Z,11.17
2023-02-21T03:34:44.105Z,11.53
2023-02-21T03:37:25.027Z,10.70
2023-02-21T03:39:53.553Z,10.33
2023-02-21T03:42:21.908Z,11.00
2023-02-21T03:44:50.002Z,11.10
2023-02-21T03:47:20.328Z,10.20
2023-02-21T03:49:49.710Z,11.77
2023-02-21T03:52:20.304Z,10.03
2023-02-21T03:54:48.767Z,11.83
2023-02-21T03:57:21.728Z,9.63
2023-02-21T03:59:52.226Z,12.37
2023-02-21T04:02:21.884Z,9.53
2023-02-21T04:04:51.585Z,10.97
2023-02-21T04:07:23.608Z,10.37
2023-02-21T04:09:52.592Z,9.60
2023-02-21T04:12:30.346Z,9.30
2023-02-21T04:14:58.814Z,9.83
2023-02-21T04:17:28.114Z,9.40
2023-02-21T04:19:57.305Z,11.43
2023-02-21T04:22:27.879Z,9.07
2023-02-21T04:24:56.295Z,9.67
2023-02-21T04:27:27.007Z,8.67
2023-02-21T04:29:57.280Z,9.33
2023-02-21T04:32:25.770Z,8.53
2023-02-21T04:34:54.145Z,8.77
2023-02-21T04:37:22.702Z,9.73
2023-02-21T04:39:52.169Z,10.63
2023-02-21T04:42:21.294Z,9.27
2023-02-21T04:44:59.623Z,8.50
2023-02-21T04:47:29.096Z,9.00
2023-02-21T04:49:59.677Z,9.23
2023-02-21T04:52:27.892Z,9.30
2023-02-21T04:54:58.876Z,9.47
2023-02-21T04:57:29.917Z,8.73
2023-02-21T04:59:59.212Z,10.07
2023-02-21T05:02:27.992Z,10.07
2023-02-21T05:04:56.459Z,10.57
2023-02-21T05:07:24.450Z,11.07
2023-02-21T05:09:54.581Z,12.13
2023-02-21T05:12:23.843Z,13.13
2023-02-21T05:14:52.700Z,14.27
2023-02-21T05:17:22.018Z,13.57
2023-02-21T05:19:50.318Z,14.77
2023-02-21T05:22:21.048Z,14.33
2023-02-21T05:24:50.723Z,14.00
2023-02-21T05:27:23.132Z,14.30
2023-02-21T05:29:55.388Z,17.60
2023-02-21T05:32:29.731Z,15.07
2023-02-21T05:34:58.093Z,14.33
2023-02-21T05:37:29.319Z,15.30
2023-02-21T05:40:01.444Z,14.03
2023-02-21T05:42:30.514Z,12.77
2023-02-21T05:45:00.251Z,15.13
2023-02-21T05:47:29.545Z,14.17
2023-02-21T05:50:01.710Z,15.90
2023-02-21T05:52:30.126Z,16.73
2023-02-21T05:55:01.153Z,18.47
2023-02-21T05:57:32.237Z,16.83
2023-02-21T06:00:02.154Z,18.57
2023-02-21T06:02:40.544Z,19.07
2023-02-21T06:05:10.967Z,14.17
2023-02-21T06:07:41.923Z,14.20
2023-02-21T06:10:10.806Z,12.57
2023-02-21T06:12:39.412Z,15.40
2023-02-21T06:15:10.111Z,14.77
2023-02-21T06:17:41.165Z,15.43
2023-02-21T06:20:12.783Z,16.73
2023-02-21T06:22:41.292Z,17.87
2023-02-21T06:25:09.572Z,16.23
2023-02-21T06:27:38.155Z,16.33
2023-02-21T06:30:12.921Z,32.07
2023-02-21T06:32:43.300Z,16.30
2023-02-21T06:35:13.370Z,14.93
2023-02-21T06:37:43.615Z,18.50
2023-02-21T06:40:14.252Z,14.40
2023-02-21T06:42:42.212Z,15.40
2023-02-21T06:45:13.015Z,14.23
2023-02-21T06:47:41.086Z,13.67
2023-02-21T06:50:10.550Z,14.87
2023-02-21T06:52:38.881Z,13.17
2023-02-21T06:55:08.547Z,13.73
2023-02-21T06:57:36.786Z,12.53
2023-02-21T07:00:05.635Z,12.43
2023-02-21T07:02:35.071Z,12.03
2023-02-21T07:05:03.501Z,13.90
2023-02-21T07:07:31.677Z,13.70
2023-02-21T07:10:01.444Z,12.43
2023-02-21T07:12:29.426Z,13.43
2023-02-21T07:14:57.474Z,11.97
2023-02-21T07:17:26.214Z,11.53
2023-02-21T07:19:55.914Z,12.67
2023-02-21T07:22:26.152Z,11.77
2023-02-21T07:24:54.630Z,9.53
2023-02-21T07:27:24.482Z,11.67
2023-02-21T07:29:52.511Z,14.17
2023-02-21T07:34:50.653Z,9.47
2023-02-21T07:37:19.947Z,8.33
2023-02-21T07:39:50.360Z,10.67
2023-02-21T07:42:18.618Z,8.37
2023-02-21T07:44:47.895Z,7.57
2023-02-21T07:47:16.030Z,7.67
2023-02-21T07:49:43.957Z,8.57
2023-02-21T07:52:13.355Z,8.07
2023-02-21T07:54:44.881Z,7.57
2023-02-21T07:57:13.586Z,5.47
2023-02-21T07:59:43.731Z,4.40
2023-02-21T08:02:12.655Z,4.93
2023-02-21T08:04:43.228Z,3.73
2023-02-21T08:07:11.769Z,6.23
2023-02-21T08:09:43.653Z,5.50
2023-02-21T08:12:12.877Z,3.23
2023-02-21T08:14:41.806Z,3.90
2023-02-21T08:17:10.341Z,2.90
2023-02-21T08:19:38.230Z,3.27
2023-02-21T08:22:06.539Z,4.17
2023-02-21T08:24:34.527Z,6.60
2023-02-21T08:27:04.541Z,7.73
2023-02-21T08:29:32.547Z,3.37
2023-02-21T08:32:00.839Z,2.97
2023-02-21T08:34:32.759Z,2.63
2023-02-21T08:37:01.193Z,3.87
2023-02-21T08:39:32.015Z,2.10
2023-02-21T08:41:59.893Z,3.53
2023-02-21T08:44:30.656Z,2.50
2023-02-21T08:46:59.287Z,3.07
2023-02-21T08:49:28.198Z,1.50
2023-02-21T08:51:56.178Z,1.30
2023-02-21T08:54:25.873Z,1.83
2023-02-21T08:56:55.378Z,3.30
2023-02-21T08:59:24.685Z,2.20
2023-02-21T09:01:54.788Z,1.83
2023-02-21T09:04:24.714Z,2.77
2023-02-21T09:06:52.888Z,2.30
2023-02-21T09:09:22.280Z,2.53
2023-02-21T09:11:50.617Z,2.50
2023-02-21T09:14:19.291Z,1.87
2023-02-21T09:16:48.166Z,1.90
2023-02-21T09:19:17.510Z,2.60
2023-02-21T09:21:48.275Z,1.83
2023-02-21T09:24:16.132Z,3.90
2023-02-21T09:26:46.487Z,2.27
2023-02-21T09:29:16.758Z,3.33
2023-02-21T09:31:47.251Z,4.00
2023-02-21T09:34:15.561Z,6.60
2023-02-21T09:36:47.686Z,5.07
2023-02-21T09:39:18.480Z,7.23
2023-02-21T09:41:49.210Z,5.40
2023-02-21T09:44:22.533Z,7.03
2023-02-21T09:46:52.272Z,4.83
2023-02-21T09:49:26.525Z,5.70
2023-02-21T09:51:59.933Z,4.33
2023-02-21T09:54:34.539Z,4.33
2023-02-21T09:57:07.843Z,6.27
2023-02-21T09:59:41.332Z,5.43
2023-02-21T10:02:26.282Z,8.50
2023-02-21T10:05:01.940Z,4.00
2023-02-21T10:07:38.831Z,5.40
2023-02-21T10:10:11.733Z,5.63
2023-02-21T10:12:42.604Z,6.27
2023-02-21T10:15:22.468Z,9.50
2023-02-21T10:17:56.352Z,6.70
2023-02-21T10:20:35.025Z,7.63
2023-02-21T10:23:07.166Z,5.87
2023-02-21T10:25:36.893Z,10.97
2023-02-21T10:28:06.083Z,6.20
2023-02-21T10:30:38.039Z,8.87
2023-02-21T10:33:08.528Z,10.40
2023-02-21T10:35:39.693Z,8.73
2023-02-21T10:38:11.707Z,5.77
2023-02-21T10:40:42.589Z,10.87
2023-02-21T10:43:13.296Z,7.30
2023-02-21T10:45:46.838Z,4.83
2023-02-21T10:48:15.597Z,6.23
2023-02-21T10:50:51.021Z,6.47
2023-02-21T10:53:31.104Z,8.33
2023-02-21T10:56:10.268Z,5.03
2023-02-21T10:58:43.591Z,6.57
2023-02-21T11:05:25.674Z,9.07
2023-02-21T11:08:01.069Z,7.90
2023-02-21T11:10:35.718Z,8.40
2023-02-21T11:13:07.864Z,9.27
2023-02-21T11:15:36.636Z,10.33
2023-02-21T11:18:08.988Z,6.53
2023-02-21T11:20:37.583Z,6.00
2023-02-21T11:23:22.470Z,11.87
2023-02-21T11:26:03.459Z,6.53
2023-02-21T11:28:32.524Z,9.43
2023-02-21T11:31:19.373Z,5.63
2023-02-21T11:33:57.317Z,10.23
2023-02-21T11:36:31.643Z,7.33
2023-02-21T11:39:06.795Z,9.60
2023-02-21T11:41:47.445Z,7.33
2023-02-21T11:44:30.268Z,10.03
2023-02-21T11:47:10.154Z,11.63
2023-02-21T11:49:52.209Z,9.20
2023-02-21T11:52:24.299Z,10.10
2023-02-21T11:54:52.748Z,63.13
2023-02-21T11:57:31.808Z,24.07
2023-02-21T12:00:08.220Z,9.50
2023-02-21T12:02:53.374Z,10.10
2023-02-21T12:05:46.168Z,9.33
2023-02-21T12:08:41.497Z,8.83
2023-02-21T12:11:20.795Z,8.33
2023-02-21T12:14:01.031Z,12.30
2023-02-21T12:16:38.396Z,8.63
2023-02-21T12:19:20.901Z,9.57
2023-02-21T12:22:05.627Z,10.77
2023-02-21T12:24:56.414Z,10.00
2023-02-21T12:27:30.715Z,8.70
2023-02-21T12:30:17.462Z,8.63
2023-02-21T12:33:17.693Z,11.50
2023-02-21T12:36:12.715Z,9.10
2023-02-21T12:38:51.397Z,10.70
2023-02-21T12:41:32.446Z,9.97
2023-02-21T12:44:15.069Z,9.70
2023-02-21T12:46:52.111Z,10.40
2023-02-21T12:49:28.257Z,13.57
2023-02-21T12:52:01.624Z,11.27
2023-02-21T12:54:41.838Z,12.20
2023-02-21T12:57:14.398Z,8.00
2023-02-21T12:59:53.591Z,12.33
2023-02-21T13:02:28.778Z,14.87
2023-02-21T13:05:02.747Z,8.30
2023-02-21T13:07:43.107Z,8.63
2023-02-21T13:10:18.139Z,11.43
2023-02-21T13:12:49.038Z,10.30
2023-02-21T13:15:22.182Z,11.57
2023-02-21T13:18:01.634Z,13.93
2023-02-21T13:20:35.336Z,12.93
2023-02-21T13:24:00.487Z,11.47
2023-02-21T13:26:37.669Z,13.00
2023-02-21T13:29:18.075Z,10.17
2023-02-21T13:31:49.531Z,10.40
2023-02-21T13:34:24.247Z,11.03
2023-02-21T13:36:54.263Z,13.27
2023-02-21T13:39:31.863Z,11.77
2023-02-21T13:42:07.316Z,13.40
2023-02-21T13:44:42.604Z,11.50
2023-02-21T13:47:20.588Z,15.13
2023-02-21T13:49:54.986Z,14.97
2023-02-21T13:52:56.146Z,14.20
2023-02-21T13:55:31.386Z,14.90
2023-02-21T13:58:33.134Z,10.57
2023-02-21T14:01:41.084Z,14.03
2023-02-21T14:05:02.252Z,9.87
2023-02-21T14:08:05.360Z,13.33
2023-02-21T14:10:42.469Z,8.50
2023-02-21T14:13:24.024Z,13.10
2023-02-21T14:15:59.371Z,15.73
2023-02-21T14:18:29.660Z,11.17
2023-02-21T14:20:59.162Z,15.33
2023-02-21T14:23:43.493Z,9.07
2023-02-21T14:26:46.662Z,18.60
2023-02-21T14:29:20.710Z,17.63
2023-02-21T14:31:58.939Z,15.47
2023-02-21T14:34:40.065Z,9.57
2023-02-21T14:37:16.199Z,15.03
2023-02-21T14:39:50.423Z,13.00
2023-02-21T14:42:35.693Z,16.73
2023-02-21T14:45:27.697Z,15.43
2023-02-21T14:48:35.549Z,11.73
2023-02-21T14:51:16.659Z,16.60
2023-02-21T14:54:02.609Z,15.83
2023-02-21T14:56:53.167Z,11.60
2023-02-21T14:59:53.386Z,10.20
2023-02-21T15:02:31.164Z,14.07
2023-02-21T15:05:04.784Z,13.47
2023-02-21T15:07:37.919Z,10.80
2023-02-21T15:10:15.401Z,12.30
2023-02-21T15:12:47.598Z,12.17
2023-02-21T15:15:20.770Z,14.03
2023-02-21T15:17:58.200Z,10.23
2023-02-21T15:20:30.105Z,14.37
2023-02-21T15:23:03.332Z,11.60
2023-02-21T15:25:35.432Z,11.57
2023-02-21T15:28:08.903Z,12.33
2023-02-21T15:30:41.281Z,12.20
2023-02-21T15:33:16.685Z,17.07
2023-02-21T15:35:48.034Z,13.33
2023-02-21T15:38:20.279Z,11.30
2023-02-21T15:40:48.753Z,18.20
2023-02-21T15:43:30.535Z,14.33
2023-02-21T15:46:02.659Z,14.93
2023-02-21T15:48:33.369Z,12.87
2023-02-21T15:51:09.299Z,13.33
2023-02-21T15:53:37.975Z,12.00
2023-02-21T15:56:22.717Z,16.63
2023-02-21T15:59:13.310Z,12.40
2023-02-21T16:01:41.847Z,17.67
2023-02-21T16:04:18.655Z,12.93
2023-02-21T16:06:50.555Z,14.73
2023-02-21T16:09:26.111Z,14.50
2023-02-21T16:11:59.224Z,20.93
2023-02-21T16:14:40.336Z,13.93
2023-02-21T16:17:26.654Z,12.87
2023-02-21T16:19:57.984Z,19.80
2023-02-21T16:22:53.854Z,16.37
2023-02-21T16:25:26.816Z,13.87
2023-02-21T16:27:58.563Z,12.23
2023-02-21T16:30:37.675Z,15.70
2023-02-21T16:33:06.965Z,15.73
2023-02-21T16:35:36.738Z,12.90
2023-02-21T16:38:11.214Z,13.20
2023-02-21T16:40:43.144Z,12.73
2023-02-21T16:43:18.951Z,16.10
2023-02-21T16:45:49.615Z,12.67
2023-02-21T16:48:21.694Z,13.30
2023-02-21T16:50:50.798Z,10.40
2023-02-21T16:53:22.592Z,18.17
2023-02-21T16:55:53.073Z,15.53
2023-02-21T16:58:26.502Z,15.30
2023-02-21T17:01:01.442Z,15.57
2023-02-21T17:03:30.910Z,16.30
2023-02-21T17:06:04.045Z,16.83
2023-02-21T17:08:35.379Z,14.07
2023-02-21T17:11:03.476Z,14.13
2023-02-21T17:13:32.781Z,15.30
2023-02-21T17:16:04.862Z,18.47
2023-02-21T17:18:34.082Z,11.83
2023-02-21T17:21:12.696Z,13.87
2023-02-21T17:23:43.542Z,18.07
2023-02-21T17:26:16.318Z,14.40
2023-02-21T17:28:44.703Z,14.47
2023-02-21T17:31:19.664Z,17.03
2023-02-21T17:33:48.427Z,15.60
2023-02-21T17:36:19.294Z,17.80
2023-02-21T17:38:48.804Z,16.63
2023-02-21T17:41:18.158Z,16.03
2023-02-21T17:43:48.303Z,14.83
2023-02-21T17:46:20.159Z,12.43
2023-02-21T17:48:49.951Z,17.13
2023-02-21T17:51:23.409Z,16.27
2023-02-21T17:53:54.427Z,12.77
2023-02-21T17:56:25.894Z,20.90
2023-02-21T17:58:57.321Z,14.90
2023-02-21T18:01:30.385Z,14.80
2023-02-21T18:04:01.369Z,15.20
2023-02-21T18:06:32.613Z,14.50
2023-02-21T18:09:03.088Z,17.03
2023-02-21T18:11:37.793Z,18.73
2023-02-21T18:14:07.395Z,18.03
2023-02-21T18:16:37.258Z,16.00
2023-02-21T18:19:06.044Z,18.80
2023-02-21T18:21:34.034Z,49.00
2023-02-21T18:24:02.207Z,17.80
2023-02-21T18:26:32.882Z,16.03
2023-02-21T18:29:04.551Z,14.03
2023-02-21T18:31:33.481Z,13.17
2023-02-21T18:34:03.314Z,17.37
2023-02-21T18:36:35.598Z,19.33
2023-02-21T18:39:07.425Z,17.17
2023-02-21T18:41:37.752Z,17.00
2023-02-21T18:44:07.710Z,21.67
2023-02-21T18:46:38.430Z,16.27
2023-02-21T18:49:13.885Z,14.77
2023-02-21T18:51:42.875Z,13.70
2023-02-21T18:54:11.374Z,17.23
2023-02-21T18:56:39.739Z,18.13
2023-02-21T18:59:07.851Z,16.93
2023-02-21T19:01:36.149Z,21.00
2023-02-21T19:04:05.456Z,14.83
2023-02-21T19:06:38.881Z,19.77
2023-02-21T19:09:08.575Z,18.70
2023-02-21T19:11:37.010Z,16.07
2023-02-21T19:14:08.797Z,21.37
2023-02-21T19:16:39.207Z,15.97
2023-02-21T19:19:09.183Z,17.27
2023-02-21T19:21:40.825Z,18.43
2023-02-21T19:24:10.199Z,20.57
2023-02-21T19:26:44.647Z,17.53
2023-02-21T19:29:13.139Z,18.07
2023-02-21T19:31:42.538Z,15.87
2023-02-21T19:34:11.616Z,23.30
2023-02-21T19:36:41.439Z,20.80
2023-02-21T19:39:11.675Z,19.00
2023-02-21T19:41:41.430Z,16.50
2023-02-21T19:44:09.874Z,19.10
2023-02-21T19:46:39.647Z,23.87
2023-02-21T19:49:17.476Z,16.90
2023-02-21T19:51:50.317Z,16.57
2023-02-21T19:54:21.280Z,18.93
2023-02-21T19:56:50.976Z,18.20
2023-02-21T19:59:19.658Z,21.97
2023-02-21T20:01:47.740Z,19.93
2023-02-21T20:04:18.628Z,18.37
2023-02-21T20:06:49.728Z,16.00
2023-02-21T20:09:20.774Z,18.37
2023-02-21T20:11:49.801Z,19.07
2023-02-21T20:14:19.006Z,18.60
2023-02-21T20:16:48.233Z,20.80
2023-02-21T20:19:16.719Z,23.33
2023-02-21T20:21:47.654Z,17.83
2023-02-21T20:24:17.147Z,18.47
2023-02-21T20:26:52.142Z,17.90
2023-02-21T20:29:21.327Z,23.37
2023-02-21T20:31:50.287Z,25.77
2023-02-21T20:34:18.476Z,17.13
2023-02-21T20:36:48.073Z,15.50
2023-02-21T20:39:20.970Z,21.83
2023-02-21T20:41:51.988Z,20.17
2023-02-21T20:44:20.126Z,19.60
2023-02-21T20:46:48.768Z,19.20
2023-02-21T20:49:17.212Z,20.20
2023-02-21T20:51:46.043Z,20.77
2023-02-21T20:54:19.738Z,18.30
2023-02-21T20:56:54.246Z,25.90
2023-02-21T20:59:26.762Z,19.30
2023-02-21T21:01:56.253Z,17.73
2023-02-21T21:04:26.900Z,22.67
2023-02-21T21:06:56.794Z,19.33
2023-02-21T21:09:34.577Z,17.43
2023-02-21T21:12:07.336Z,19.93
2023-02-21T21:14:39.617Z,16.77
2023-02-21T21:17:12.741Z,27.30
2023-02-21T21:19:44.948Z,27.90
2023-02-21T21:22:17.060Z,21.67
2023-02-21T21:24:45.563Z,18.97
2023-02-21T21:27:22.000Z,24.23
2023-02-21T21:29:52.586Z,25.90
2023-02-21T21:32:24.291Z,21.80
2023-02-21T21:34:55.418Z,20.97
2023-02-21T21:37:26.533Z,18.90
2023-02-21T21:39:56.522Z,25.30
2023-02-21T21:42:32.580Z,21.93
2023-02-21T21:45:02.994Z,20.47
2023-02-21T21:47:37.190Z,21.57
2023-02-21T21:50:07.217Z,17.43
2023-02-21T21:52:42.030Z,21.47
2023-02-21T21:55:17.340Z,32.47
2023-02-21T21:57:53.406Z,24.60
2023-02-21T22:00:25.163Z,21.90
2023-02-21T22:02:57.336Z,18.23
2023-02-21T22:05:28.543Z,21.33
2023-02-21T22:07:57.285Z,21.93
2023-02-21T22:10:27.280Z,18.87
2023-02-21T22:13:00.793Z,16.10
2023-02-21T22:15:31.757Z,20.17
2023-02-21T22:18:04.083Z,16.20
2023-02-21T22:20:32.592Z,21.57
2023-02-21T22:23:01.314Z,25.80
2023-02-21T22:25:32.058Z,16.23
2023-02-21T22:28:05.614Z,24.23
2023-02-21T22:30:33.801Z,24.30
2023-02-21T22:33:02.226Z,25.10
2023-02-21T22:35:30.362Z,20.83
2023-02-21T22:38:02.171Z,25.47
2023-02-21T22:40:35.895Z,20.90
2023-02-21T22:43:08.906Z,23.73
2023-02-21T22:45:38.591Z,15.53
2023-02-21T22:48:09.939Z,22.87
2023-02-21T22:50:38.109Z,18.63
2023-02-21T22:53:13.035Z,21.43
2023-02-21T22:55:41.177Z,16.63
2023-02-21T22:58:17.332Z,23.73
2023-02-21T23:00:45.764Z,23.57
2023-02-21T23:03:18.218Z,20.47
2023-02-21T23:05:49.057Z,28.50
2023-02-21T23:08:21.120Z,37.47
2023-02-21T23:10:51.509Z,21.20
2023-02-21T23:13:22.967Z,22.20
2023-02-21T23:15:53.229Z,21.93
2023-02-21T23:18:23.548Z,20.23
2023-02-21T23:20:53.634Z,21.20
2023-02-21T23:23:22.545Z,19.60
2023-02-21T23:25:50.452Z,19.03
2023-02-21T23:28:20.453Z,17.43
2023-02-21T23:30:49.732Z,18.07
2023-02-21T23:33:22.795Z,19.60
2023-02-21T23:35:52.364Z,22.83
2023-02-21T23:38:23.107Z,21.17
2023-02-21T23:40:56.475Z,20.87
2023-02-21T23:43:29.325Z,20.43
2023-02-21T23:45:59.217Z,25.63
2023-02-21T23:48:27.347Z,19.80
2023-02-21T23:50:58.341Z,19.80
2023-02-21T23:53:31.717Z,19.97
2023-02-21T23:56:01.069Z,21.10
2023-02-21T23:58:32.524Z,70.90
